McSherrystown, Pennsylvania
Current Conditions -  °F | °C
As of 6:53 AM on Tuesday 27 Jan 2015 (Local Time) from KTHV Reporting Station
Light Snow Light Snow  
Wind Chill: 19°   Ceiling: 3700
Heat Index: 26°   Visibility: 8mi
Dew Point: 21°   Wind: 6mph
Humidity: 81%   Direction: 330°NNW
Pressure: 29.77"   Gusts: NA
Location:  39.81°N, 77.01°W
Report Text: KTHV 271153Z AUTO 33005KT 8SM -SN FEW016 BKN037 OVC055 M03/M06 A2977 RMK AO2 SLP088 P0000 60000 T10331061 11033 21039 53008
Loading
Personal Weather Stations






























Interactive Weather Map New forecast layout! Learn more

10-Day Weather Forecast

Advertisements
Track Severe Weather on mobile